Solms, Texas
Current Conditions -  °F | °C
As of 6:51 PM on Saturday 22 Nov 2014 (Local Time) from KBAZ Reporting Station
Broken Clouds Broken Clouds  
Wind Chill: 69°   Ceiling: 3700
Heat Index: 69°   Visibility: 10mi
Dew Point: 68°   Wind: 9mph
Humidity: 96%   Direction: 160°SSE
Pressure: 29.74"   Gusts: NA
Location:  29.6944°N, 98.0725°W
Report Text: KBAZ 230051Z 16008KT 10SM SCT021 SCT030 BKN037 21/20 A2974 RMK AO2 LTG DSNT W-N SLP063 T02060200
Loading
Personal Weather Stations






























Interactive Weather Map New forecast layout! Learn more

10-Day Weather Forecast

Advertisements
Track Severe Weather on mobile